createdAt,value
2018-07-28T00:01:15.849Z,21.50
2018-07-28T00:03:44.289Z,21.50
2018-07-28T00:06:12.626Z,21.50
2018-07-28T00:08:40.999Z,21.50
2018-07-28T00:11:09.365Z,21.40
2018-07-28T00:13:37.949Z,21.40
2018-07-28T00:16:07.270Z,21.30
2018-07-28T00:18:35.705Z,21.20
2018-07-28T00:21:04.084Z,21.20
2018-07-28T00:23:32.454Z,21.10
2018-07-28T00:26:21.552Z,21.00
2018-07-28T00:28:50.348Z,21.00
2018-07-28T00:31:18.822Z,20.90
2018-07-28T00:33:47.308Z,20.90
2018-07-28T00:36:15.774Z,20.80
2018-07-28T00:38:44.171Z,20.80
2018-07-28T00:41:12.566Z,20.80
2018-07-28T00:43:40.956Z,20.80
2018-07-28T00:46:09.344Z,20.70
2018-07-28T00:48:38.152Z,20.70
2018-07-28T00:53:34.624Z,20.70
2018-07-28T00:56:03.588Z,20.70
2018-07-28T01:01:00.071Z,20.70
2018-07-28T01:03:29.236Z,20.60
2018-07-28T01:05:57.824Z,20.60
2018-07-28T01:08:26.184Z,20.50
2018-07-28T01:10:54.574Z,20.40
2018-07-28T01:13:22.916Z,19.50
2018-07-28T01:15:51.361Z,19.50
2018-07-28T01:18:19.768Z,19.60
2018-07-28T01:20:48.192Z,19.60
2018-07-28T01:23:16.572Z,19.60
2018-07-28T01:25:45.648Z,19.70
2018-07-28T01:28:14.050Z,19.70
2018-07-28T01:33:10.787Z,19.80
2018-07-28T01:35:39.156Z,19.80
2018-07-28T01:38:07.500Z,19.80
2018-07-28T01:40:35.978Z,19.90
2018-07-28T01:43:04.382Z,19.90
2018-07-28T01:45:32.798Z,19.90
2018-07-28T01:48:01.143Z,20.00
2018-07-28T01:50:29.490Z,20.00
2018-07-28T01:52:58.062Z,20.10
2018-07-28T01:55:26.387Z,20.10
2018-07-28T01:57:54.754Z,20.10
2018-07-28T02:00:23.133Z,20.00
2018-07-28T02:02:51.737Z,19.90
2018-07-28T02:05:20.258Z,19.90
2018-07-28T02:07:48.670Z,19.90
2018-07-28T02:10:17.043Z,19.90
2018-07-28T02:12:45.390Z,19.90
2018-07-28T02:15:13.837Z,20.00
2018-07-28T02:17:42.190Z,19.90
2018-07-28T02:20:10.550Z,19.90
2018-07-28T02:22:38.959Z,19.90
2018-07-28T02:25:08.829Z,19.90
2018-07-28T02:27:37.190Z,19.80
2018-07-28T02:30:06.339Z,19.80
2018-07-28T02:32:35.005Z,19.80
2018-07-28T02:35:03.433Z,19.70
2018-07-28T02:37:31.870Z,19.60
2018-07-28T02:40:00.225Z,19.60
2018-07-28T02:42:28.610Z,19.50
2018-07-28T02:44:57.008Z,19.50
2018-07-28T02:47:25.395Z,19.50
2018-07-28T02:49:53.862Z,19.40
2018-07-28T02:52:22.252Z,19.40
2018-07-28T02:54:50.641Z,19.50
2018-07-28T02:57:19.012Z,19.50
2018-07-28T02:59:47.378Z,19.60
2018-07-28T03:02:15.889Z,19.70
2018-07-28T03:04:44.298Z,19.70
2018-07-28T03:07:12.649Z,19.80
2018-07-28T03:09:41.015Z,19.80
2018-07-28T03:12:09.415Z,19.80
2018-07-28T03:14:37.992Z,19.80
2018-07-28T03:17:06.555Z,19.80
2018-07-28T03:19:34.969Z,19.70
2018-07-28T03:22:04.053Z,19.60
2018-07-28T03:24:32.392Z,19.20
2018-07-28T03:27:00.777Z,18.80
2018-07-28T03:29:29.122Z,18.70
2018-07-28T03:31:57.490Z,18.70
2018-07-28T03:34:25.869Z,18.70
2018-07-28T03:36:54.234Z,18.80
2018-07-28T03:39:22.592Z,19.00
2018-07-28T03:41:50.974Z,19.20
2018-07-28T03:44:19.324Z,19.30
2018-07-28T03:46:47.714Z,19.40
2018-07-28T03:49:16.125Z,19.60
2018-07-28T03:51:44.484Z,19.70
2018-07-28T03:54:12.832Z,19.80
2018-07-28T03:56:41.177Z,19.90
2018-07-28T03:59:09.554Z,20.00
2018-07-28T04:01:37.896Z,20.10
2018-07-28T04:04:06.342Z,20.20
2018-07-28T04:06:34.664Z,20.30
2018-07-28T04:09:03.080Z,20.30
2018-07-28T04:11:31.450Z,20.40
2018-07-28T04:13:59.842Z,20.40
2018-07-28T04:16:28.246Z,20.40
2018-07-28T04:18:56.621Z,20.40
2018-07-28T04:21:24.968Z,20.40
2018-07-28T04:23:53.339Z,20.20
2018-07-28T04:26:21.675Z,20.20
2018-07-28T04:28:50.091Z,20.10
2018-07-28T04:31:18.845Z,19.90
2018-07-28T04:33:47.198Z,19.90
2018-07-28T04:36:15.583Z,19.90
2018-07-28T04:38:43.944Z,20.00
2018-07-28T04:41:12.689Z,20.10
2018-07-28T04:43:41.054Z,20.20
2018-07-28T04:46:09.399Z,20.30
2018-07-28T04:48:37.787Z,20.40
2018-07-28T04:51:06.151Z,20.50
2018-07-28T04:53:36.941Z,20.60
2018-07-28T04:56:05.964Z,20.70
2018-07-28T04:58:34.503Z,20.70
2018-07-28T05:01:03.163Z,20.80
2018-07-28T05:03:31.607Z,20.80
2018-07-28T05:08:28.243Z,20.70
2018-07-28T05:10:56.615Z,20.60
2018-07-28T05:15:59.715Z,20.60
2018-07-28T05:18:28.150Z,20.80
2018-07-28T05:20:56.524Z,21.00
2018-07-28T05:23:24.901Z,21.10
2018-07-28T05:28:27.989Z,21.40
2018-07-28T05:33:24.434Z,21.60
2018-07-28T05:35:53.037Z,21.70
2018-07-28T05:38:28.839Z,21.70
2018-07-28T05:40:57.260Z,21.80
2018-07-28T05:45:53.634Z,21.80
2018-07-28T05:48:21.996Z,21.80
2018-07-28T05:50:50.364Z,21.90
2018-07-28T05:53:18.786Z,21.90
2018-07-28T05:55:47.205Z,22.00
2018-07-28T05:58:15.590Z,22.00
2018-07-28T06:00:43.967Z,21.90
2018-07-28T06:03:12.360Z,21.90
2018-07-28T06:08:09.228Z,21.80
2018-07-28T06:10:37.599Z,21.70
2018-07-28T06:13:06.088Z,21.70
2018-07-28T06:15:34.471Z,21.60
2018-07-28T06:18:02.848Z,21.60
2018-07-28T06:20:31.220Z,21.50
2018-07-28T06:22:59.595Z,21.50
2018-07-28T06:25:27.939Z,21.50
2018-07-28T06:30:24.413Z,21.50
2018-07-28T06:32:52.857Z,21.50
2018-07-28T06:35:21.272Z,21.60
2018-07-28T06:37:49.671Z,21.70
2018-07-28T06:45:14.256Z,21.80
2018-07-28T06:47:42.617Z,21.80
2018-07-28T06:50:10.999Z,21.80
2018-07-28T06:52:39.387Z,21.80
2018-07-28T06:55:07.893Z,21.90
2018-07-28T06:57:36.233Z,22.00
2018-07-28T07:00:06.737Z,22.00
2018-07-28T07:02:35.091Z,22.00
2018-07-28T07:05:03.509Z,21.90
2018-07-28T07:07:31.865Z,21.90
2018-07-28T07:10:00.305Z,21.80
2018-07-28T07:12:28.689Z,22.00
2018-07-28T07:14:57.779Z,22.00
2018-07-28T07:17:26.181Z,22.10
2018-07-28T07:22:22.860Z,22.00
2018-07-28T07:24:51.216Z,21.80
2018-07-28T07:27:19.611Z,21.90
2018-07-28T07:29:47.977Z,21.90
2018-07-28T07:32:16.356Z,22.00
2018-07-28T07:34:44.780Z,22.10
2018-07-28T07:37:14.803Z,22.10
2018-07-28T07:39:44.148Z,22.20
2018-07-28T07:42:12.602Z,22.10
2018-07-28T07:44:41.031Z,22.00
2018-07-28T07:47:09.465Z,22.10
2018-07-28T07:49:37.778Z,22.20
2018-07-28T07:52:06.561Z,22.30
2018-07-28T07:57:03.564Z,22.50
2018-07-28T07:59:31.887Z,22.50
2018-07-28T08:02:00.327Z,22.50
2018-07-28T08:04:28.707Z,22.70
2018-07-28T08:06:57.077Z,22.90
2018-07-28T08:09:25.425Z,23.00
2018-07-28T08:11:53.793Z,23.30
2018-07-28T08:14:22.212Z,23.50
2018-07-28T08:16:50.613Z,23.70
2018-07-28T08:19:19.092Z,23.90
2018-07-28T08:21:47.483Z,24.00
2018-07-28T08:24:15.861Z,24.20
2018-07-28T08:26:44.287Z,24.40
2018-07-28T08:29:12.677Z,24.60
2018-07-28T08:31:41.059Z,24.70
2018-07-28T08:34:09.447Z,25.00
2018-07-28T08:36:37.875Z,25.10
2018-07-28T08:39:12.283Z,25.20
2018-07-28T08:41:41.075Z,25.20
2018-07-28T08:44:09.464Z,25.60
2018-07-28T08:46:37.911Z,25.70
2018-07-28T08:49:06.408Z,25.70
2018-07-28T08:54:03.053Z,26.00
2018-07-28T08:56:31.457Z,26.20
2018-07-28T08:58:59.956Z,26.10
2018-07-28T09:01:28.353Z,26.10
2018-07-28T09:03:56.776Z,25.80
2018-07-28T09:06:25.169Z,25.60
2018-07-28T09:08:53.550Z,25.50
2018-07-28T09:11:22.159Z,25.50
2018-07-28T09:13:50.561Z,25.60
2018-07-28T09:16:19.060Z,25.70
2018-07-28T09:18:47.493Z,25.60
2018-07-28T09:26:12.138Z,25.70
2018-07-28T09:28:40.736Z,25.70
2018-07-28T09:31:09.181Z,25.90
2018-07-28T09:33:38.770Z,26.10
2018-07-28T09:36:07.408Z,26.10
2018-07-28T09:38:35.868Z,26.30
2018-07-28T09:41:04.315Z,26.50
2018-07-28T09:43:32.790Z,26.80
2018-07-28T09:46:01.167Z,26.90
2018-07-28T09:48:29.678Z,26.80
2018-07-28T09:50:58.202Z,27.00
2018-07-28T09:53:26.603Z,27.10
2018-07-28T09:55:55.085Z,26.90
2018-07-28T09:58:24.176Z,26.70
2018-07-28T10:01:03.898Z,26.70
2018-07-28T10:03:32.426Z,26.70
2018-07-28T10:08:28.986Z,26.50
2018-07-28T10:10:57.492Z,26.60
2018-07-28T10:13:25.864Z,26.80
2018-07-28T10:15:54.275Z,26.80
2018-07-28T10:18:22.699Z,26.60
2018-07-28T10:20:51.136Z,26.70
2018-07-28T10:23:19.580Z,26.80
2018-07-28T10:25:48.038Z,27.00
2018-07-28T10:28:16.526Z,27.20
2018-07-28T10:30:45.805Z,27.40
2018-07-28T10:33:14.197Z,28.00
2018-07-28T10:35:42.605Z,27.90
2018-07-28T10:40:39.066Z,28.10
2018-07-28T10:45:35.742Z,28.30
2018-07-28T10:48:04.113Z,28.10
2018-07-28T10:50:32.460Z,28.20
2018-07-28T10:53:00.852Z,28.10
2018-07-28T10:55:29.240Z,27.90
2018-07-28T10:57:57.726Z,27.20
2018-07-28T11:00:26.221Z,26.90
2018-07-28T11:02:54.672Z,27.10
2018-07-28T11:05:24.023Z,27.40
2018-07-28T11:07:52.472Z,27.60
2018-07-28T11:10:21.620Z,27.50
2018-07-28T11:12:50.740Z,27.40
2018-07-28T11:20:15.324Z,28.00
2018-07-28T11:22:43.870Z,28.40
2018-07-28T11:25:12.350Z,28.60
2018-07-28T11:30:09.428Z,28.60
2018-07-28T11:32:48.884Z,28.60
2018-07-28T11:35:28.507Z,28.80
2018-07-28T11:38:08.996Z,28.50
2018-07-28T11:40:48.580Z,28.30
2018-07-28T11:43:28.049Z,28.50
2018-07-28T11:45:56.673Z,28.90
2018-07-28T11:48:25.020Z,28.80
2018-07-28T11:50:53.393Z,28.70
2018-07-28T11:53:21.913Z,28.70
2018-07-28T11:55:50.280Z,28.60
2018-07-28T11:58:18.736Z,28.70
2018-07-28T12:00:47.680Z,28.50
2018-07-28T12:03:16.220Z,28.30
2018-07-28T12:05:44.607Z,28.00
2018-07-28T12:08:13.044Z,28.10
2018-07-28T12:10:41.438Z,28.30
2018-07-28T12:13:09.867Z,28.20
2018-07-28T12:15:38.260Z,27.90
2018-07-28T12:18:07.029Z,28.10
2018-07-28T12:20:35.514Z,28.30
2018-07-28T12:23:05.127Z,28.40
2018-07-28T12:25:34.691Z,28.70
2018-07-28T12:28:03.066Z,29.10
2018-07-28T12:30:31.531Z,29.20
2018-07-28T12:33:00.884Z,29.30
2018-07-28T12:35:29.220Z,29.50
2018-07-28T12:37:57.662Z,29.50
2018-07-28T12:40:26.161Z,29.50
2018-07-28T12:42:54.727Z,29.80
2018-07-28T12:45:23.197Z,30.10
2018-07-28T12:47:52.215Z,30.10
2018-07-28T12:50:20.618Z,30.00
2018-07-28T12:52:48.956Z,29.20
2018-07-28T12:55:17.593Z,29.00
2018-07-28T12:57:45.982Z,28.80
2018-07-28T13:00:14.546Z,28.70
2018-07-28T13:02:43.197Z,28.80
2018-07-28T13:05:11.615Z,28.90
2018-07-28T13:07:40.149Z,28.80
2018-07-28T13:10:09.376Z,28.60
2018-07-28T13:12:43.279Z,28.70
2018-07-28T13:17:40.034Z,29.00
2018-07-28T13:25:05.595Z,28.60
2018-07-28T13:27:34.085Z,28.50
2018-07-28T13:30:02.510Z,28.90
2018-07-28T13:32:30.905Z,29.20
2018-07-28T13:34:59.287Z,29.50
2018-07-28T13:37:27.741Z,29.80
2018-07-28T13:39:56.167Z,29.80
2018-07-28T13:42:24.572Z,29.40
2018-07-28T13:44:52.951Z,29.50
2018-07-28T13:47:21.332Z,29.70
2018-07-28T13:49:49.827Z,30.00
2018-07-28T13:52:18.237Z,30.00
2018-07-28T13:54:46.603Z,29.50
2018-07-28T13:57:14.977Z,29.40
2018-07-28T13:59:43.349Z,29.00
2018-07-28T14:02:11.739Z,29.20
2018-07-28T14:04:40.127Z,29.10
2018-07-28T14:07:09.640Z,29.10
2018-07-28T14:09:38.029Z,29.20
2018-07-28T14:12:06.455Z,29.40
2018-07-28T14:14:34.787Z,29.10
2018-07-28T14:17:03.985Z,28.60
2018-07-28T14:19:32.337Z,28.10
2018-07-28T14:22:00.748Z,27.50
2018-07-28T14:24:29.157Z,27.30
2018-07-28T14:26:57.542Z,27.10
2018-07-28T14:29:25.947Z,27.30
2018-07-28T14:34:22.537Z,27.50
2018-07-28T14:36:50.976Z,27.50
2018-07-28T14:39:19.381Z,27.70
2018-07-28T14:41:47.819Z,27.80
2018-07-28T14:44:16.273Z,28.00
2018-07-28T14:46:44.685Z,27.90
2018-07-28T14:49:13.079Z,27.80
2018-07-28T14:51:42.343Z,27.60
2018-07-28T14:54:10.695Z,27.60
2018-07-28T14:56:39.325Z,27.90
2018-07-28T14:59:08.489Z,28.20
2018-07-28T15:04:04.980Z,28.30
2018-07-28T15:06:33.473Z,28.50
2018-07-28T15:09:02.775Z,29.00
2018-07-28T15:11:31.096Z,29.30
2018-07-28T15:13:59.555Z,29.00
2018-07-28T15:16:27.881Z,28.70
2018-07-28T15:18:56.282Z,28.70
2018-07-28T15:21:25.701Z,28.60
2018-07-28T15:23:54.205Z,28.60
2018-07-28T15:26:22.597Z,28.20
2018-07-28T15:28:51.940Z,28.20
2018-07-28T15:31:21.181Z,28.30
2018-07-28T15:33:49.622Z,28.40
2018-07-28T15:36:21.260Z,28.70
2018-07-28T15:38:49.631Z,28.80
2018-07-28T15:41:18.061Z,28.90
2018-07-28T15:43:47.319Z,28.90
2018-07-28T15:46:15.708Z,28.90
2018-07-28T15:48:51.386Z,29.10
2018-07-28T15:51:19.772Z,28.70
2018-07-28T15:53:50.555Z,28.60
2018-07-28T15:56:20.639Z,28.20
2018-07-28T15:58:49.132Z,28.20
2018-07-28T16:01:17.931Z,27.90
2018-07-28T16:03:46.609Z,28.00
2018-07-28T16:08:43.562Z,27.80
2018-07-28T16:11:12.196Z,27.70
2018-07-28T16:13:41.373Z,27.70
2018-07-28T16:16:11.131Z,27.70
2018-07-28T16:18:53.784Z,27.80
2018-07-28T16:21:22.874Z,27.90
2018-07-28T16:23:52.114Z,27.90
2018-07-28T16:26:20.466Z,27.90
2018-07-28T16:28:48.832Z,27.70
2018-07-28T16:33:46.400Z,27.60
2018-07-28T16:36:14.838Z,27.60
2018-07-28T16:38:43.276Z,27.60
2018-07-28T16:43:39.746Z,27.60
2018-07-28T16:46:08.180Z,27.50
2018-07-28T16:48:36.642Z,27.50
2018-07-28T16:51:05.052Z,27.40
2018-07-28T16:56:01.505Z,27.70
2018-07-28T16:58:30.680Z,27.80
2018-07-28T17:00:59.220Z,27.80
2018-07-28T17:03:28.211Z,27.80
2018-07-28T17:05:57.777Z,28.00
2018-07-28T17:08:26.240Z,27.80
2018-07-28T17:10:54.752Z,28.00
2018-07-28T17:13:23.713Z,28.10
2018-07-28T17:15:52.127Z,28.30
2018-07-28T17:18:21.138Z,28.40
2018-07-28T17:20:50.866Z,28.10
2018-07-28T17:23:46.818Z,28.10
2018-07-28T17:26:15.416Z,27.90
2018-07-28T17:28:44.136Z,27.60
2018-07-28T17:31:12.767Z,27.30
2018-07-28T17:33:41.289Z,27.40
2018-07-28T17:36:09.947Z,27.40
2018-07-28T17:38:38.570Z,27.40
2018-07-28T17:41:08.609Z,27.40
2018-07-28T17:43:36.889Z,27.40
2018-07-28T17:46:05.366Z,27.30
2018-07-28T17:48:34.023Z,27.30
2018-07-28T17:51:02.577Z,27.30
2018-07-28T17:53:31.026Z,27.30
2018-07-28T17:55:59.490Z,27.30
2018-07-28T17:58:27.944Z,27.20
2018-07-28T18:00:56.565Z,27.20
2018-07-28T18:03:25.091Z,27.10
2018-07-28T18:05:53.604Z,27.00
2018-07-28T18:08:22.168Z,26.90
2018-07-28T18:10:50.670Z,26.80
2018-07-28T18:13:19.070Z,26.80
2018-07-28T18:15:47.470Z,26.70
2018-07-28T18:18:15.832Z,26.40
2018-07-28T18:20:44.233Z,26.40
2018-07-28T18:23:12.658Z,26.30
2018-07-28T18:30:37.441Z,26.20
2018-07-28T18:33:06.468Z,26.10
2018-07-28T18:35:34.949Z,26.10
2018-07-28T18:38:06.282Z,26.00
2018-07-28T18:40:34.694Z,25.90
2018-07-28T18:45:31.687Z,25.70
2018-07-28T18:48:01.228Z,25.70
2018-07-28T18:50:29.647Z,25.60
2018-07-28T18:52:58.124Z,25.50
2018-07-28T18:57:54.640Z,25.40
2018-07-28T19:00:23.149Z,25.40
2018-07-28T19:02:52.120Z,25.30
2018-07-28T19:05:20.563Z,25.20
2018-07-28T19:07:48.976Z,25.10
2018-07-28T19:10:17.449Z,25.10
2018-07-28T19:12:51.302Z,25.10
2018-07-28T19:17:53.409Z,25.00
2018-07-28T19:20:21.849Z,24.90
2018-07-28T19:22:55.746Z,24.90
2018-07-28T19:27:58.014Z,24.70
2018-07-28T19:30:26.443Z,24.70
2018-07-28T19:32:54.892Z,24.60
2018-07-28T19:35:23.459Z,24.50
2018-07-28T19:37:51.886Z,24.40
2018-07-28T19:40:20.347Z,24.30
2018-07-28T19:42:51.408Z,24.30
2018-07-28T19:45:20.157Z,24.20
2018-07-28T19:47:48.602Z,24.10
2018-07-28T19:50:17.077Z,24.00
2018-07-28T19:52:45.635Z,23.90
2018-07-28T19:57:48.568Z,23.60
2018-07-28T20:00:16.946Z,23.50
2018-07-28T20:02:45.500Z,23.40
2018-07-28T20:05:14.016Z,23.40
2018-07-28T20:07:42.463Z,23.30
2018-07-28T20:10:10.886Z,23.30
2018-07-28T20:12:39.541Z,23.20
2018-07-28T20:15:07.985Z,23.10
2018-07-28T20:17:36.445Z,23.00
2018-07-28T20:20:04.858Z,23.00
2018-07-28T20:22:33.272Z,22.90
2018-07-28T20:25:01.664Z,22.80
2018-07-28T20:27:30.228Z,22.70
2018-07-28T20:29:58.651Z,22.70
2018-07-28T20:32:27.003Z,22.60
2018-07-28T20:34:55.573Z,22.60
2018-07-28T20:37:24.288Z,22.50
2018-07-28T20:39:52.931Z,22.40
2018-07-28T20:42:21.272Z,22.30
2018-07-28T20:44:49.859Z,22.20
2018-07-28T20:47:19.186Z,22.20
2018-07-28T20:49:47.511Z,21.80
2018-07-28T20:52:16.148Z,21.30
2018-07-28T20:54:44.526Z,21.20
2018-07-28T20:57:13.112Z,21.10
2018-07-28T20:59:41.625Z,21.20
2018-07-28T21:02:10.010Z,21.20
2018-07-28T21:04:38.548Z,21.20
2018-07-28T21:07:06.982Z,21.30
2018-07-28T21:09:35.346Z,21.30
2018-07-28T21:12:03.725Z,21.30
2018-07-28T21:14:32.407Z,21.30
2018-07-28T21:17:00.912Z,21.20
2018-07-28T21:19:29.254Z,21.00
2018-07-28T21:21:57.622Z,21.00
2018-07-28T21:24:26.111Z,21.10
2018-07-28T21:26:54.527Z,21.10
2018-07-28T21:29:22.915Z,21.10
2018-07-28T21:31:51.876Z,20.90
2018-07-28T21:34:20.297Z,20.80
2018-07-28T21:36:48.676Z,20.40
2018-07-28T21:39:17.085Z,20.40
2018-07-28T21:41:45.515Z,20.40
2018-07-28T21:44:13.953Z,20.30
2018-07-28T21:46:42.555Z,20.50
2018-07-28T21:49:11.025Z,20.60
2018-07-28T21:51:39.769Z,20.70
2018-07-28T21:54:08.227Z,20.70
2018-07-28T21:56:36.857Z,20.70
2018-07-28T21:59:05.834Z,20.80
2018-07-28T22:01:34.275Z,20.80
2018-07-28T22:04:03.380Z,20.70
2018-07-28T22:06:33.486Z,20.70
2018-07-28T22:09:01.881Z,20.70
2018-07-28T22:11:30.489Z,20.60
2018-07-28T22:13:59.533Z,20.50
2018-07-28T22:16:27.942Z,20.50
2018-07-28T22:18:56.309Z,20.50
2018-07-28T22:21:24.820Z,20.40
2018-07-28T22:23:53.219Z,20.40
2018-07-28T22:26:21.635Z,20.30
2018-07-28T22:28:50.121Z,20.30
2018-07-28T22:31:18.533Z,20.30
2018-07-28T22:33:47.033Z,20.20
2018-07-28T22:36:15.502Z,20.10
2018-07-28T22:38:43.889Z,19.90
2018-07-28T22:41:12.424Z,19.90
2018-07-28T22:43:40.817Z,19.90
2018-07-28T22:46:09.258Z,19.80
2018-07-28T22:48:37.677Z,19.90
2018-07-28T22:51:06.087Z,20.00
2018-07-28T22:53:34.561Z,20.10
2018-07-28T22:56:03.079Z,20.10
2018-07-28T22:58:31.456Z,20.30
2018-07-28T23:00:59.957Z,20.30
2018-07-28T23:03:28.355Z,20.30
2018-07-28T23:05:56.772Z,20.30
2018-07-28T23:08:25.162Z,20.30
2018-07-28T23:10:53.676Z,20.30
2018-07-28T23:13:22.104Z,20.40
2018-07-28T23:15:50.511Z,20.30
2018-07-28T23:20:47.095Z,20.20
2018-07-28T23:23:15.670Z,20.10
2018-07-28T23:25:44.240Z,20.10
2018-07-28T23:28:12.746Z,20.10
2018-07-28T23:30:41.712Z,20.10
2018-07-28T23:38:06.280Z,20.00
2018-07-28T23:40:34.810Z,19.90
2018-07-28T23:43:03.314Z,19.80
2018-07-28T23:45:31.725Z,19.80
2018-07-28T23:48:00.373Z,19.80
2018-07-28T23:52:57.024Z,19.80
2018-07-28T23:55:26.204Z,19.80
2018-07-28T23:57:54.681Z,19.80
